Hyannis, MA

7:14 PM EST on January 20, 2017 (GMT -0500)
Cape Air EDC Building | | Change Station
Active Advisory: Storm Watch

Elev 49 ft 41.67 °N, 70.29 °W | Updated 22 seconds ago

Overcast
Overcast
40.1 °F
Feels Like 40 °F
N
0.0
Wind Variable Wind from SSE
Gusts 0.0 mph

Today
High -- | Low -- °F
--% Chance of Precip.
Yesterday
High -- | Low -- °F
Precip. -- in
Pressure 29.96 in
Visibility 10.0 miles
Clouds Overcast 3000 ft
Windchill 40 °F
Dew Point 26 °F
Humidity 58%
Rainfall 0.00 in
Snow Depth Not available.
7:02 AM 4:42 PM
Last Quarter, 40% visible
METAR KHYA 202356Z 00000KT 10SM OVC030 04/M01 A2996 RMK AO2 SLP146 T00391006 10056 20039 53003
Pressure 29.96 in
Visibility 10.0 miles
Clouds Overcast 3000 ft
Windchill 40 °F
Dew Point 26 °F
Humidity 58%
Rainfall 0.00 in
Snow Depth Not available.
7:02 AM 4:42 PM
Last Quarter, 40% visible
METAR KHYA 202356Z 00000KT 10SM OVC030 04/M01 A2996 RMK AO2 SLP146 T00391006 10056 20039 53003

Get Your Daily Forecast Email!

Thanks for signing up!

Be on the lookout for a verification email in your inbox.

You'll start receiving the daily forecast at 8 AM.

×

10-Day Weather Forecast

Almanac

Astronomy

Jan. 20, 2017 Rise Set
Actual Time
Civil Twilight
Nautical Twilight
Astronomical Twilight
Moon
Length of Visible Light
Length of Day
Tomorrow will be .
, % of the Moon is Illuminated

Today's Extremes

State Highs State Lows

Community

WunderPhotos

Upload Photos

1,962,540 photos uploaded!

WunderBlog® & News

Nearby

Air Quality

  Air Quality AQ Index Pollutant
Not available.

Snow Depth

Station Depth Elevation

Earthquake Activity

City Distance Mag. Time & Date
Minimum magnitude displayed is 2.5.

Coastal Water Temperatures

Place Temperature

Stations

Nearby Weather Stations

Station Location Temp. Windchill Dew Point Humidity Wind Precip. Elev Updated Type
                   

Watches & Warnings

Storm Watch
Issued: 4:20 PM EST Jan. 20, 2017 – National Weather Service

... Storm watch in effect from Monday afternoon through late
Monday night...

The National Weather Service in Taunton has issued a storm
watch... which is in effect from Monday afternoon through late
Monday night.

* Winds and seas... east winds 35 to 45 kt with gusts up to 55
kt. Seas 7 to 10 feet.

Precautionary/preparedness actions...

A storm watch is issued when the risk of storm force winds of
48 to 63 knots has significantly increased... but the specific
timing and/or location is still uncertain. It is intended to
provide additional lead time for mariners who may wish to
consider altering their plans.